createdAt,value
2018-12-16T00:03:21.246Z,21.28
2018-12-16T00:08:24.570Z,21.28
2018-12-16T00:13:28.098Z,21.31
2018-12-16T00:18:31.594Z,21.32
2018-12-16T00:23:35.137Z,21.34
2018-12-16T00:28:38.636Z,21.34
2018-12-16T00:33:42.286Z,21.34
2018-12-16T00:38:45.713Z,21.36
2018-12-16T00:43:49.138Z,21.35
2018-12-16T00:48:52.756Z,21.34
2018-12-16T00:53:56.200Z,21.36
2018-12-16T00:58:59.637Z,21.37
2018-12-16T01:04:03.025Z,21.34
2018-12-16T01:09:08.006Z,21.35
2018-12-16T01:14:11.450Z,21.35
2018-12-16T01:19:14.964Z,21.36
2018-12-16T01:24:18.451Z,21.37
2018-12-16T01:29:21.979Z,21.36
2018-12-16T01:34:25.449Z,21.37
2018-12-16T01:39:29.157Z,21.38
2018-12-16T01:44:32.571Z,21.39
2018-12-16T01:49:35.976Z,21.37
2018-12-16T01:54:39.351Z,21.38
2018-12-16T01:59:42.953Z,21.38
2018-12-16T02:04:46.373Z,21.38
2018-12-16T02:09:49.775Z,21.39
2018-12-16T02:14:53.290Z,21.39
2018-12-16T02:19:56.771Z,21.38
2018-12-16T02:25:00.115Z,21.39
2018-12-16T02:30:09.080Z,21.39
2018-12-16T02:35:12.587Z,21.41
2018-12-16T02:40:15.942Z,21.41
2018-12-16T02:45:19.505Z,21.39
2018-12-16T02:50:22.948Z,21.42
2018-12-16T02:55:26.417Z,21.41
2018-12-16T03:00:29.776Z,21.42
2018-12-16T03:05:33.161Z,21.41
2018-12-16T03:10:36.515Z,21.41
2018-12-16T03:15:39.869Z,21.42
2018-12-16T03:20:43.305Z,21.43
2018-12-16T03:25:46.729Z,21.42
2018-12-16T03:30:50.207Z,21.43
2018-12-16T03:35:53.712Z,21.42
2018-12-16T03:40:57.222Z,21.43
2018-12-16T03:46:00.770Z,21.44
2018-12-16T03:51:04.397Z,21.44
2018-12-16T03:56:07.780Z,21.40
2018-12-16T04:01:11.207Z,21.45
2018-12-16T04:06:14.558Z,21.44
2018-12-16T04:11:17.939Z,21.45
2018-12-16T04:16:21.401Z,21.42
2018-12-16T04:21:24.829Z,21.43
2018-12-16T04:26:28.192Z,21.45
2018-12-16T04:31:31.548Z,21.41
2018-12-16T04:36:37.875Z,21.44
2018-12-16T04:41:41.267Z,21.45
2018-12-16T04:46:44.610Z,21.34
2018-12-16T04:51:48.117Z,21.45
2018-12-16T04:56:51.540Z,21.44
2018-12-16T05:01:54.999Z,21.44
2018-12-16T05:06:58.362Z,21.44
2018-12-16T05:12:01.758Z,21.43
2018-12-16T05:17:05.229Z,21.46
2018-12-16T05:22:08.642Z,21.45
2018-12-16T05:27:12.064Z,21.44
2018-12-16T05:32:15.454Z,21.44
2018-12-16T05:37:18.823Z,21.45
2018-12-16T05:42:22.299Z,21.44
2018-12-16T05:47:25.708Z,21.40
2018-12-16T05:52:29.143Z,21.37
2018-12-16T05:57:32.598Z,21.35
2018-12-16T06:02:35.955Z,21.35
2018-12-16T06:07:39.344Z,21.32
2018-12-16T06:12:42.876Z,21.20
2018-12-16T06:17:46.558Z,21.11
2018-12-16T06:22:50.079Z,21.05
2018-12-16T06:27:53.479Z,21.06
2018-12-16T06:32:56.838Z,21.17
2018-12-16T06:38:00.254Z,21.20
2018-12-16T06:43:03.741Z,21.25
2018-12-16T06:48:07.174Z,21.19
2018-12-16T06:53:10.550Z,21.07
2018-12-16T06:58:13.916Z,20.96
2018-12-16T07:03:17.366Z,20.88
2018-12-16T07:08:20.785Z,20.78
2018-12-16T07:13:24.165Z,20.69
2018-12-16T07:18:27.553Z,20.63
2018-12-16T07:23:30.929Z,20.56
2018-12-16T07:28:34.330Z,20.50
2018-12-16T07:33:37.674Z,20.44
2018-12-16T07:38:41.196Z,20.37
2018-12-16T07:43:44.583Z,20.31
2018-12-16T07:48:48.143Z,20.31
2018-12-16T07:53:51.520Z,20.36
2018-12-16T07:58:55.056Z,20.43
2018-12-16T08:03:58.411Z,20.52
2018-12-16T08:09:01.807Z,15.83
2018-12-16T08:14:05.169Z,14.88
2018-12-16T08:19:08.770Z,15.34
2018-12-16T08:24:12.339Z,18.29
2018-12-16T08:29:15.789Z,19.44
2018-12-16T08:34:19.149Z,19.85
2018-12-16T08:39:22.518Z,20.10
2018-12-16T08:44:25.965Z,20.35
2018-12-16T08:49:29.373Z,20.39
2018-12-16T08:54:33.598Z,20.35
2018-12-16T08:59:37.013Z,20.27
2018-12-16T09:04:40.375Z,20.25
2018-12-16T09:09:44.031Z,20.20
2018-12-16T09:14:47.494Z,20.11
2018-12-16T09:19:51.032Z,20.03
2018-12-16T09:24:54.537Z,19.99
2018-12-16T09:29:58.048Z,19.93
2018-12-16T09:35:01.530Z,19.87
2018-12-16T09:40:06.845Z,19.83
2018-12-16T09:45:10.452Z,19.84
2018-12-16T09:50:13.987Z,19.89
2018-12-16T09:55:17.509Z,19.99
2018-12-16T10:00:20.938Z,20.07
2018-12-16T10:05:24.374Z,20.24
2018-12-16T10:10:27.883Z,20.24
2018-12-16T10:15:31.297Z,20.21
2018-12-16T10:20:34.894Z,20.11
2018-12-16T10:25:38.477Z,20.09
2018-12-16T10:30:41.979Z,20.03
2018-12-16T10:35:46.563Z,20.00
2018-12-16T10:40:50.023Z,19.99
2018-12-16T10:45:53.472Z,19.94
2018-12-16T10:50:56.848Z,19.93
2018-12-16T10:56:00.309Z,19.95
2018-12-16T11:01:09.255Z,19.99
2018-12-16T11:06:12.691Z,20.07
2018-12-16T11:11:16.254Z,20.21
2018-12-16T11:16:19.817Z,20.37
2018-12-16T11:21:23.279Z,20.45
2018-12-16T11:26:26.646Z,20.50
2018-12-16T11:31:30.078Z,20.57
2018-12-16T11:36:33.622Z,20.57
2018-12-16T11:41:37.085Z,20.62
2018-12-16T11:46:40.566Z,20.66
2018-12-16T11:51:44.142Z,20.69
2018-12-16T11:56:47.551Z,20.68
2018-12-16T12:01:51.058Z,20.67
2018-12-16T12:06:54.622Z,20.65
2018-12-16T12:11:58.042Z,20.66
2018-12-16T12:17:01.450Z,20.67
2018-12-16T12:22:04.994Z,20.77
2018-12-16T12:27:08.351Z,20.73
2018-12-16T12:32:11.706Z,20.76
2018-12-16T12:37:15.048Z,20.76
2018-12-16T12:42:18.486Z,20.72
2018-12-16T12:47:21.877Z,20.68
2018-12-16T12:52:25.316Z,19.51
2018-12-16T12:57:29.111Z,18.94
2018-12-16T13:02:32.550Z,18.66
2018-12-16T13:07:35.923Z,17.67
2018-12-16T13:12:39.582Z,19.42
2018-12-16T13:17:43.055Z,20.25
2018-12-16T13:22:46.562Z,20.75
2018-12-16T13:27:50.037Z,21.00
2018-12-16T13:32:53.422Z,21.06
2018-12-16T13:37:56.867Z,21.08
2018-12-16T13:43:00.549Z,21.07
2018-12-16T13:48:04.232Z,21.07
2018-12-16T13:53:07.645Z,21.05
2018-12-16T13:58:11.062Z,21.05
2018-12-16T14:03:14.545Z,21.04
2018-12-16T14:08:18.167Z,20.99
2018-12-16T14:13:21.667Z,20.98
2018-12-16T14:18:25.034Z,20.99
2018-12-16T14:23:28.496Z,21.02
2018-12-16T14:28:31.886Z,20.99
2018-12-16T14:33:35.341Z,20.96
2018-12-16T14:38:38.836Z,20.93
2018-12-16T14:43:42.223Z,20.92
2018-12-16T14:48:45.662Z,20.94
2018-12-16T14:53:49.066Z,20.95
2018-12-16T14:58:52.416Z,21.03
2018-12-16T15:03:55.806Z,21.05
2018-12-16T15:08:59.389Z,20.98
2018-12-16T15:14:02.986Z,20.99
2018-12-16T15:19:06.354Z,20.99
2018-12-16T15:24:09.807Z,21.10
2018-12-16T15:29:13.408Z,21.11
2018-12-16T15:34:16.894Z,21.04
2018-12-16T15:39:20.472Z,21.04
2018-12-16T15:44:24.850Z,20.99
2018-12-16T15:49:28.356Z,20.96
2018-12-16T15:54:32.030Z,20.90
2018-12-16T15:59:36.884Z,20.94
2018-12-16T16:04:40.625Z,20.95
2018-12-16T16:09:44.365Z,20.92
2018-12-16T16:14:48.038Z,20.88
2018-12-16T16:19:51.710Z,20.88
2018-12-16T16:24:55.209Z,20.83
2018-12-16T16:29:59.010Z,20.82
2018-12-16T16:35:03.032Z,20.82
2018-12-16T16:40:08.086Z,20.83
2018-12-16T16:45:11.881Z,20.86
2018-12-16T16:50:15.702Z,20.89
2018-12-16T16:55:20.383Z,20.91
2018-12-16T17:00:24.079Z,20.90
2018-12-16T17:05:30.017Z,20.91
2018-12-16T17:10:34.089Z,20.95
2018-12-16T17:15:37.807Z,20.94
2018-12-16T17:20:41.636Z,20.96
2018-12-16T17:25:48.462Z,20.94
2018-12-16T17:30:50.934Z,20.97
2018-12-16T17:35:54.356Z,20.89
2018-12-16T17:40:57.773Z,20.91
2018-12-16T17:46:01.289Z,20.90
2018-12-16T17:51:04.783Z,20.93
2018-12-16T17:56:08.307Z,20.92
2018-12-16T18:01:11.771Z,20.95
2018-12-16T18:06:15.463Z,20.95
2018-12-16T18:11:19.037Z,21.03
2018-12-16T18:16:22.410Z,21.07
2018-12-16T18:21:26.280Z,21.05
2018-12-16T18:26:29.882Z,21.18
2018-12-16T18:31:33.428Z,21.27
2018-12-16T18:36:37.355Z,21.20
2018-12-16T18:41:41.453Z,21.13
2018-12-16T18:46:45.176Z,21.11
2018-12-16T18:51:48.837Z,21.12
2018-12-16T18:56:52.627Z,21.12
2018-12-16T19:01:56.242Z,21.09
2018-12-16T19:07:00.033Z,21.08
2018-12-16T19:12:03.818Z,21.09
2018-12-16T19:17:07.406Z,21.08
2018-12-16T19:22:10.985Z,21.10
2018-12-16T19:27:14.574Z,21.09
2018-12-16T19:32:18.096Z,21.08
2018-12-16T19:37:21.703Z,21.07
2018-12-16T19:42:25.474Z,21.08
2018-12-16T19:47:29.116Z,21.07
2018-12-16T19:52:32.827Z,21.07
2018-12-16T19:57:36.559Z,21.09
2018-12-16T20:02:40.278Z,21.10
2018-12-16T20:07:43.973Z,21.12
2018-12-16T20:12:47.681Z,21.16
2018-12-16T20:17:51.355Z,21.12
2018-12-16T20:22:55.063Z,21.10
2018-12-16T20:27:58.875Z,21.08
2018-12-16T20:33:02.552Z,21.07
2018-12-16T20:38:06.346Z,21.08
2018-12-16T20:43:10.179Z,21.09
2018-12-16T20:48:14.395Z,21.08
2018-12-16T20:53:18.227Z,21.20
2018-12-16T20:58:21.834Z,21.18
2018-12-16T21:03:25.552Z,21.19
2018-12-16T21:08:29.186Z,21.17
2018-12-16T21:13:38.102Z,21.27
2018-12-16T21:18:41.990Z,21.21
2018-12-16T21:23:45.744Z,21.19
2018-12-16T21:28:49.389Z,21.17
2018-12-16T21:33:52.910Z,21.17
2018-12-16T21:38:56.684Z,21.19
2018-12-16T21:44:00.327Z,21.16
2018-12-16T21:49:03.954Z,21.19
2018-12-16T21:54:09.078Z,21.14
2018-12-16T21:59:12.629Z,21.21
2018-12-16T22:04:16.232Z,21.20
2018-12-16T22:09:19.835Z,21.18
2018-12-16T22:14:23.496Z,21.22
2018-12-16T22:19:27.150Z,21.21
2018-12-16T22:24:30.724Z,21.22
2018-12-16T22:29:34.351Z,21.24
2018-12-16T22:34:37.865Z,21.22
2018-12-16T22:39:41.479Z,21.23
2018-12-16T22:44:45.199Z,21.24
2018-12-16T22:49:48.776Z,21.24
2018-12-16T22:54:52.140Z,21.41
2018-12-16T22:59:55.607Z,21.42
2018-12-16T23:04:59.108Z,21.42
2018-12-16T23:10:02.686Z,21.40
2018-12-16T23:15:07.038Z,21.41
2018-12-16T23:20:19.608Z,21.41
2018-12-16T23:25:22.995Z,21.42
2018-12-16T23:30:26.541Z,21.43
2018-12-16T23:35:29.883Z,21.42
2018-12-16T23:40:33.433Z,21.42
2018-12-16T23:45:36.885Z,21.43
2018-12-16T23:50:40.283Z,21.44
2018-12-16T23:55:43.635Z,21.43
